createdAt,value
2018-01-15T00:01:21.831Z,20.62
2018-01-15T00:03:50.908Z,22.48
2018-01-15T00:06:19.993Z,21.17
2018-01-15T00:08:49.116Z,38.38
2018-01-15T00:11:19.125Z,22.10
2018-01-15T00:13:48.844Z,28.55
2018-01-15T00:16:17.760Z,35.15
2018-01-15T00:18:46.642Z,25.15
2018-01-15T00:21:25.887Z,30.92
2018-01-15T00:23:54.732Z,30.27
2018-01-15T00:26:23.677Z,24.98
2018-01-15T00:28:52.510Z,29.58
2018-01-15T00:31:21.364Z,28.87
2018-01-15T00:33:50.215Z,31.87
2018-01-15T00:36:19.079Z,35.03
2018-01-15T00:38:47.939Z,32.67
2018-01-15T00:41:16.813Z,28.23
2018-01-15T00:43:46.419Z,39.58
2018-01-15T00:46:15.266Z,35.72
2018-01-15T00:48:44.135Z,27.30
2018-01-15T00:51:12.954Z,36.25
2018-01-15T00:53:41.826Z,29.65
2018-01-15T00:56:10.692Z,27.70
2018-01-15T00:58:39.509Z,26.98
2018-01-15T01:01:08.381Z,38.53
2018-01-15T01:03:37.232Z,27.65
2018-01-15T01:06:06.093Z,31.10
2018-01-15T01:08:34.915Z,25.02
2018-01-15T01:11:03.762Z,23.62
2018-01-15T01:13:32.595Z,20.77
2018-01-15T01:16:01.470Z,27.87
2018-01-15T01:18:30.334Z,25.83
2018-01-15T01:20:59.183Z,21.15
2018-01-15T01:23:28.024Z,24.45
2018-01-15T01:25:56.867Z,31.80
2018-01-15T01:28:25.721Z,30.62
2018-01-15T01:30:54.595Z,30.67
2018-01-15T01:33:23.447Z,28.60
2018-01-15T01:35:52.256Z,33.20
2018-01-15T01:38:21.892Z,23.12
2018-01-15T01:40:50.779Z,25.83
2018-01-15T01:43:19.637Z,22.08
2018-01-15T01:45:49.255Z,21.98
2018-01-15T01:48:18.893Z,26.83
2018-01-15T01:50:47.746Z,23.58
2018-01-15T01:53:16.585Z,21.40
2018-01-15T01:55:45.467Z,21.67
2018-01-15T01:58:14.285Z,23.75
2018-01-15T02:00:43.185Z,22.33
2018-01-15T02:03:12.049Z,24.45
2018-01-15T02:05:40.887Z,22.92
2018-01-15T02:08:09.728Z,22.27
2018-01-15T02:10:38.575Z,22.60
2018-01-15T02:13:07.447Z,23.25
2018-01-15T02:15:36.291Z,22.48
2018-01-15T02:18:05.927Z,22.60
2018-01-15T02:20:34.763Z,22.70
2018-01-15T02:23:03.644Z,22.42
2018-01-15T02:25:32.547Z,21.15
2018-01-15T02:28:01.075Z,21.10
2018-01-15T02:30:30.042Z,41.53
2018-01-15T02:32:59.665Z,26.00
2018-01-15T02:35:28.551Z,26.98
2018-01-15T02:37:57.385Z,23.95
2018-01-15T02:40:26.239Z,22.40
2018-01-15T02:42:55.798Z,22.92
2018-01-15T02:45:24.634Z,26.52
2018-01-15T02:47:54.240Z,24.20
2018-01-15T02:50:23.886Z,27.27
2018-01-15T02:52:52.753Z,21.55
2018-01-15T02:55:21.595Z,23.05
2018-01-15T02:57:50.474Z,21.90
2018-01-15T03:00:19.346Z,21.98
2018-01-15T03:02:48.195Z,22.92
2018-01-15T03:05:17.053Z,20.15
2018-01-15T03:07:45.911Z,22.40
2018-01-15T03:10:15.525Z,24.48
2018-01-15T03:12:45.166Z,22.90
2018-01-15T03:15:14.035Z,21.10
2018-01-15T03:17:43.647Z,21.92
2018-01-15T03:20:13.349Z,22.25
2018-01-15T03:22:42.993Z,21.35
2018-01-15T03:25:11.825Z,23.02
2018-01-15T03:27:40.692Z,24.87
2018-01-15T03:30:09.569Z,23.83
2018-01-15T03:32:39.129Z,22.80
2018-01-15T03:35:07.985Z,22.05
2018-01-15T03:37:36.833Z,21.62
2018-01-15T03:40:05.711Z,21.20
2018-01-15T03:42:34.595Z,22.52
2018-01-15T03:45:03.448Z,20.52
2018-01-15T03:47:33.079Z,24.12
2018-01-15T03:50:01.941Z,23.25
2018-01-15T03:52:30.802Z,19.33
2018-01-15T03:55:00.404Z,22.60
2018-01-15T03:57:29.270Z,25.50
2018-01-15T03:59:58.134Z,22.98
2018-01-15T04:02:26.979Z,23.00
2018-01-15T04:04:55.843Z,21.92
2018-01-15T04:07:24.688Z,23.30
2018-01-15T04:09:53.545Z,21.30
2018-01-15T04:12:22.416Z,22.55
2018-01-15T04:14:51.292Z,20.02
2018-01-15T04:17:20.156Z,22.48
2018-01-15T04:19:49.027Z,23.48
2018-01-15T04:22:17.897Z,24.15
2018-01-15T04:24:46.761Z,26.12
2018-01-15T04:27:15.359Z,25.00
2018-01-15T04:29:44.197Z,25.67
2018-01-15T04:32:13.019Z,22.42
2018-01-15T04:34:41.892Z,22.73
2018-01-15T04:37:11.394Z,29.20
2018-01-15T04:39:39.955Z,22.60
2018-01-15T04:42:09.317Z,22.50
2018-01-15T04:44:38.183Z,24.90
2018-01-15T04:47:07.783Z,25.67
2018-01-15T04:49:37.420Z,24.00
2018-01-15T04:52:06.255Z,25.23
2018-01-15T04:54:35.603Z,27.13
2018-01-15T04:57:05.250Z,21.30
2018-01-15T04:59:34.116Z,28.77
2018-01-15T05:02:02.924Z,27.70
2018-01-15T05:04:31.788Z,29.15
2018-01-15T05:07:00.363Z,31.23
2018-01-15T05:09:29.198Z,26.60
2018-01-15T05:11:58.056Z,30.08
2018-01-15T05:14:26.626Z,27.33
2018-01-15T05:16:55.453Z,32.22
2018-01-15T05:19:24.290Z,23.23
2018-01-15T05:21:53.665Z,25.70
2018-01-15T05:24:22.486Z,39.50
2018-01-15T05:26:51.855Z,37.57
2018-01-15T05:29:20.452Z,44.97
2018-01-15T05:31:49.081Z,52.83
2018-01-15T05:34:17.921Z,30.20
2018-01-15T05:36:46.520Z,32.87
2018-01-15T05:39:15.341Z,34.38
2018-01-15T05:41:44.197Z,30.55
2018-01-15T05:44:13.044Z,29.95
2018-01-15T05:46:41.620Z,30.30
2018-01-15T05:49:10.981Z,31.73
2018-01-15T05:51:39.563Z,28.93
2018-01-15T05:54:08.372Z,30.90
2018-01-15T05:56:37.252Z,27.35
2018-01-15T05:59:05.821Z,29.70
2018-01-15T06:01:34.651Z,30.62
2018-01-15T06:04:03.235Z,28.13
2018-01-15T06:06:31.841Z,25.47
2018-01-15T06:09:00.376Z,26.90
2018-01-15T06:11:28.950Z,25.83
2018-01-15T06:13:57.815Z,25.60
2018-01-15T06:16:26.391Z,23.57
2018-01-15T06:18:54.950Z,26.63
2018-01-15T06:21:23.553Z,24.23
2018-01-15T06:23:52.102Z,29.03
2018-01-15T06:26:20.692Z,28.77
2018-01-15T06:28:49.271Z,25.63
2018-01-15T06:31:17.785Z,30.93
2018-01-15T06:33:46.345Z,25.93
2018-01-15T06:36:14.944Z,34.23
2018-01-15T06:38:43.513Z,27.03
2018-01-15T06:41:11.962Z,28.37
2018-01-15T06:43:40.572Z,32.80
2018-01-15T06:46:08.821Z,31.53
2018-01-15T06:48:37.397Z,31.40
2018-01-15T06:51:05.967Z,33.90
2018-01-15T06:53:34.524Z,32.53
2018-01-15T06:56:03.109Z,30.33
2018-01-15T06:58:31.684Z,31.10
2018-01-15T07:01:00.240Z,31.80
2018-01-15T07:03:28.917Z,29.90
2018-01-15T07:05:58.280Z,28.00
2018-01-15T07:08:26.861Z,32.03
2018-01-15T07:10:55.460Z,25.07
2018-01-15T07:13:24.031Z,29.83
2018-01-15T07:15:52.598Z,34.10
2018-01-15T07:18:21.172Z,26.03
2018-01-15T07:20:49.758Z,25.97
2018-01-15T07:23:18.333Z,27.30
2018-01-15T07:25:46.887Z,25.23
2018-01-15T07:28:15.305Z,27.23
2018-01-15T07:30:43.866Z,30.87
2018-01-15T07:33:12.464Z,25.73
2018-01-15T07:35:41.042Z,26.00
2018-01-15T07:38:10.354Z,24.53
2018-01-15T07:40:38.951Z,27.40
2018-01-15T07:43:07.509Z,24.37
2018-01-15T07:45:36.830Z,26.13
2018-01-15T07:48:05.406Z,26.50
2018-01-15T07:50:33.979Z,25.33
2018-01-15T07:53:02.548Z,41.23
2018-01-15T07:55:31.149Z,44.20
2018-01-15T07:57:59.878Z,30.93
2018-01-15T08:00:28.444Z,27.37
2018-01-15T08:02:57.013Z,28.73
2018-01-15T08:05:25.588Z,25.53
2018-01-15T08:07:54.144Z,25.97
2018-01-15T08:10:22.697Z,29.00
2018-01-15T08:12:51.280Z,32.80
2018-01-15T08:15:21.743Z,28.50
2018-01-15T08:17:50.337Z,33.07
2018-01-15T08:20:18.890Z,32.23
2018-01-15T08:22:47.489Z,33.70
2018-01-15T08:25:16.049Z,41.00
2018-01-15T08:27:45.394Z,32.07
2018-01-15T08:30:13.993Z,41.73
2018-01-15T08:32:42.569Z,61.97
2018-01-15T08:35:11.120Z,36.13
2018-01-15T08:37:39.672Z,44.97
2018-01-15T08:40:08.258Z,46.07
2018-01-15T08:42:36.777Z,50.33
2018-01-15T08:45:05.368Z,43.90
2018-01-15T08:47:33.961Z,36.90
2018-01-15T08:50:02.521Z,26.73
2018-01-15T08:52:31.907Z,25.60
2018-01-15T08:55:00.555Z,31.40
2018-01-15T08:57:30.060Z,35.37
2018-01-15T08:59:58.646Z,38.93
2018-01-15T09:02:27.222Z,32.53
2018-01-15T09:04:55.775Z,47.43
2018-01-15T09:07:24.377Z,38.80
2018-01-15T09:09:52.961Z,42.63
2018-01-15T09:12:21.548Z,39.57
2018-01-15T09:14:50.131Z,46.00
2018-01-15T09:17:18.735Z,32.87
2018-01-15T09:19:48.312Z,28.97
2018-01-15T09:22:17.728Z,34.60
2018-01-15T09:24:47.184Z,38.10
2018-01-15T09:27:15.736Z,38.00
2018-01-15T09:29:44.320Z,40.70
2018-01-15T09:32:12.869Z,27.80
2018-01-15T09:34:41.467Z,31.83
2018-01-15T09:37:10.834Z,25.37
2018-01-15T09:39:39.447Z,28.27
2018-01-15T09:42:08.030Z,26.17
2018-01-15T09:44:36.609Z,29.83
2018-01-15T09:47:05.206Z,29.53
2018-01-15T09:49:33.776Z,30.67
2018-01-15T09:52:02.376Z,28.00
2018-01-15T09:54:30.978Z,28.40
2018-01-15T09:56:59.568Z,28.53
2018-01-15T09:59:28.924Z,30.30
2018-01-15T10:01:57.515Z,29.10
2018-01-15T10:04:26.068Z,38.77
2018-01-15T10:06:54.652Z,32.87
2018-01-15T10:09:23.439Z,37.27
2018-01-15T10:11:52.008Z,36.80
2018-01-15T10:14:21.364Z,49.97
2018-01-15T10:16:49.970Z,44.00
2018-01-15T10:19:18.517Z,33.83
2018-01-15T10:21:47.069Z,25.30
2018-01-15T10:24:15.640Z,28.37
2018-01-15T10:26:44.970Z,28.30
2018-01-15T10:29:13.562Z,30.53
2018-01-15T10:31:42.165Z,34.87
2018-01-15T10:34:10.763Z,34.43
2018-01-15T10:36:39.335Z,27.17
2018-01-15T10:39:07.893Z,30.20
2018-01-15T10:41:37.190Z,30.23
2018-01-15T10:44:06.558Z,27.27
2018-01-15T10:46:35.159Z,28.03
2018-01-15T10:49:03.714Z,27.00
2018-01-15T10:51:34.506Z,26.67
2018-01-15T10:54:03.229Z,22.13
2018-01-15T10:56:31.820Z,26.17
2018-01-15T10:59:00.409Z,23.77
2018-01-15T11:01:29.024Z,23.50
2018-01-15T11:03:57.583Z,24.13
2018-01-15T11:06:26.200Z,20.83
2018-01-15T11:08:54.783Z,24.23
2018-01-15T11:11:23.366Z,22.20
2018-01-15T11:13:51.962Z,25.53
2018-01-15T11:16:20.542Z,22.20
2018-01-15T11:18:49.136Z,21.97
2018-01-15T11:21:17.712Z,20.90
2018-01-15T11:23:46.280Z,21.33
2018-01-15T11:26:14.876Z,21.53
2018-01-15T11:28:43.448Z,22.10
2018-01-15T11:31:12.044Z,22.60
2018-01-15T11:33:40.666Z,22.17
2018-01-15T11:36:10.014Z,19.47
2018-01-15T11:38:38.610Z,22.03
2018-01-15T11:41:07.153Z,20.97
2018-01-15T11:43:37.483Z,21.87
2018-01-15T11:46:06.889Z,22.43
2018-01-15T11:48:35.466Z,23.63
2018-01-15T11:51:04.059Z,21.60
2018-01-15T11:53:32.654Z,119.80
2018-01-15T11:56:01.220Z,26.20
2018-01-15T11:58:30.342Z,28.80
2018-01-15T12:00:58.916Z,67.93
2018-01-15T12:03:28.246Z,74.50
2018-01-15T12:05:56.871Z,23.67
2018-01-15T12:08:25.433Z,25.03
2018-01-15T12:10:54.001Z,28.47
2018-01-15T12:13:22.564Z,24.20
2018-01-15T12:15:51.155Z,24.13
2018-01-15T12:18:19.726Z,22.90
2018-01-15T12:20:49.074Z,22.97
2018-01-15T12:23:17.689Z,29.87
2018-01-15T12:25:46.367Z,31.13
2018-01-15T12:28:14.967Z,26.67
2018-01-15T12:30:43.548Z,27.47
2018-01-15T12:33:12.064Z,25.60
2018-01-15T12:35:41.386Z,25.10
2018-01-15T12:38:09.939Z,25.13
2018-01-15T12:40:38.460Z,23.20
2018-01-15T12:43:07.035Z,23.13
2018-01-15T12:45:35.584Z,24.80
2018-01-15T12:48:06.243Z,22.73
2018-01-15T12:50:35.604Z,24.87
2018-01-15T12:53:04.199Z,23.27
2018-01-15T12:55:32.764Z,22.83
2018-01-15T12:58:01.424Z,21.37
2018-01-15T13:00:30.027Z,23.43
2018-01-15T13:02:58.700Z,28.57
2018-01-15T13:09:03.204Z,20.33
2018-01-15T13:11:31.166Z,18.93
2018-01-15T13:14:00.633Z,16.43
2018-01-15T13:16:29.151Z,20.23
2018-01-15T13:18:57.730Z,16.97
2018-01-15T13:21:26.311Z,17.60
2018-01-15T13:23:54.891Z,21.30
2018-01-15T13:26:23.475Z,19.93
2018-01-15T13:28:52.832Z,17.20
2018-01-15T13:31:21.393Z,17.00
2018-01-15T13:33:50.010Z,16.33
2018-01-15T13:36:19.375Z,14.93
2018-01-15T13:38:47.930Z,14.40
2018-01-15T13:41:16.517Z,13.63
2018-01-15T13:43:45.110Z,14.80
2018-01-15T13:46:13.698Z,15.50
2018-01-15T13:48:42.323Z,15.03
2018-01-15T13:51:10.921Z,13.77
2018-01-15T13:53:39.467Z,10.33
2018-01-15T13:56:08.060Z,11.90
2018-01-15T13:58:36.636Z,12.27
2018-01-15T14:01:05.176Z,10.70
2018-01-15T14:03:34.587Z,11.97
2018-01-15T14:06:03.932Z,12.00
2018-01-15T14:08:32.483Z,13.37
2018-01-15T14:11:01.853Z,15.33
2018-01-15T14:13:30.487Z,14.03
2018-01-15T14:15:59.057Z,19.77
2018-01-15T14:18:28.395Z,13.17
2018-01-15T14:20:56.941Z,13.73
2018-01-15T14:23:26.284Z,17.73
2018-01-15T14:25:54.949Z,19.07
2018-01-15T14:28:23.579Z,13.60
2018-01-15T14:30:52.139Z,13.93
2018-01-15T14:33:20.722Z,11.43
2018-01-15T14:35:49.348Z,11.87
2018-01-15T14:38:18.073Z,12.13
2018-01-15T14:40:47.408Z,9.60
2018-01-15T14:43:15.816Z,9.83
2018-01-15T14:45:44.341Z,12.47
2018-01-15T14:48:13.706Z,11.47
2018-01-15T14:50:49.043Z,10.97
2018-01-15T14:53:17.642Z,10.80
2018-01-15T14:55:46.218Z,10.63
2018-01-15T14:58:14.766Z,11.77
2018-01-15T15:00:43.327Z,14.93
2018-01-15T15:03:11.917Z,14.20
2018-01-15T15:05:41.300Z,11.20
2018-01-15T15:08:13.493Z,10.63
2018-01-15T15:10:42.870Z,9.93
2018-01-15T15:13:11.467Z,8.77
2018-01-15T15:15:40.845Z,13.97
2018-01-15T15:18:09.447Z,15.17
2018-01-15T15:20:38.014Z,14.17
2018-01-15T15:23:06.634Z,16.03
2018-01-15T15:25:35.246Z,16.43
2018-01-15T15:28:03.795Z,13.77
2018-01-15T15:30:32.380Z,16.57
2018-01-15T15:33:00.926Z,20.07
2018-01-15T15:35:29.445Z,19.47
2018-01-15T15:37:58.068Z,22.10
2018-01-15T15:40:27.424Z,18.63
2018-01-15T15:42:56.004Z,19.70
2018-01-15T15:45:24.610Z,19.80
2018-01-15T15:47:53.272Z,18.93
2018-01-15T15:50:21.863Z,19.13
2018-01-15T15:52:50.470Z,20.67
2018-01-15T15:55:19.091Z,17.03
2018-01-15T15:57:48.428Z,18.07
2018-01-15T16:00:17.139Z,20.27
2018-01-15T16:02:45.825Z,24.03
2018-01-15T16:05:14.380Z,21.07
2018-01-15T16:07:42.964Z,19.47
2018-01-15T16:10:12.379Z,18.43
2018-01-15T16:12:40.988Z,16.93
2018-01-15T16:15:09.762Z,19.27
2018-01-15T16:17:38.359Z,22.27
2018-01-15T16:20:06.950Z,24.00
2018-01-15T16:22:34.936Z,25.27
2018-01-15T16:25:03.539Z,21.67
2018-01-15T16:27:32.103Z,21.43
2018-01-15T16:30:04.319Z,23.00
2018-01-15T16:32:32.910Z,23.43
2018-01-15T16:35:01.485Z,17.37
2018-01-15T16:37:30.854Z,16.03
2018-01-15T16:39:59.448Z,19.60
2018-01-15T16:42:28.062Z,18.03
2018-01-15T16:44:56.695Z,17.70
2018-01-15T16:47:25.337Z,18.40
2018-01-15T16:49:54.508Z,19.27
2018-01-15T16:52:23.114Z,16.50
2018-01-15T16:54:52.476Z,18.33
2018-01-15T16:57:24.267Z,18.47
2018-01-15T16:59:52.886Z,17.13
2018-01-15T17:02:22.217Z,14.50
2018-01-15T17:04:50.828Z,17.17
2018-01-15T17:07:19.455Z,17.17
2018-01-15T17:09:54.088Z,19.17
2018-01-15T17:12:22.706Z,16.70
2018-01-15T17:14:51.321Z,18.40
2018-01-15T17:17:19.902Z,16.67
2018-01-15T17:19:48.464Z,15.13
2018-01-15T17:22:17.028Z,18.10
2018-01-15T17:24:45.599Z,15.03
2018-01-15T17:27:14.952Z,33.53
2018-01-15T17:29:43.495Z,16.40
2018-01-15T17:32:12.821Z,19.77
2018-01-15T17:34:41.456Z,13.10
2018-01-15T17:37:10.063Z,17.50
2018-01-15T17:39:38.622Z,14.73
2018-01-15T17:42:07.287Z,15.13
2018-01-15T17:44:35.844Z,16.93
2018-01-15T17:47:04.436Z,13.40
2018-01-15T17:49:33.025Z,12.33
2018-01-15T17:52:01.442Z,14.43
2018-01-15T17:54:30.044Z,14.87
2018-01-15T17:56:58.613Z,15.77
2018-01-15T17:59:27.193Z,14.97
2018-01-15T18:01:55.785Z,20.13
2018-01-15T18:04:24.485Z,16.23
2018-01-15T18:06:53.099Z,12.43
2018-01-15T18:09:22.425Z,11.97
2018-01-15T18:11:50.991Z,15.00
2018-01-15T18:14:20.282Z,13.37
2018-01-15T18:16:48.890Z,13.43
2018-01-15T18:19:17.491Z,10.77
2018-01-15T18:21:47.075Z,15.13
2018-01-15T18:24:16.444Z,14.30
2018-01-15T18:26:45.049Z,12.70
2018-01-15T18:29:13.607Z,11.97
2018-01-15T18:31:42.192Z,15.83
2018-01-15T18:34:10.789Z,13.13
2018-01-15T18:36:39.420Z,13.53
2018-01-15T18:39:08.150Z,12.00
2018-01-15T18:41:36.729Z,12.23
2018-01-15T18:44:05.278Z,13.37
2018-01-15T18:46:34.605Z,14.50
2018-01-15T18:49:03.394Z,11.73
2018-01-15T18:51:31.776Z,12.47
2018-01-15T18:54:00.378Z,12.03
2018-01-15T18:56:28.978Z,10.80
2018-01-15T18:58:57.515Z,10.33
2018-01-15T19:01:26.092Z,11.07
2018-01-15T19:03:55.459Z,8.97
2018-01-15T19:06:24.176Z,11.83
2018-01-15T19:08:52.943Z,10.43
2018-01-15T19:11:27.168Z,10.20
2018-01-15T19:13:55.758Z,8.83
2018-01-15T19:16:25.173Z,7.03
2018-01-15T19:18:53.764Z,12.73
2018-01-15T19:21:22.821Z,8.97
2018-01-15T19:23:51.391Z,9.77
2018-01-15T19:26:19.936Z,8.77
2018-01-15T19:28:49.137Z,8.27
2018-01-15T19:31:18.303Z,9.07
2018-01-15T19:33:46.670Z,8.80
2018-01-15T19:36:20.743Z,8.53
2018-01-15T19:39:07.913Z,6.60
2018-01-15T19:41:36.329Z,7.73
2018-01-15T19:47:21.688Z,6.43
2018-01-15T19:49:56.336Z,8.03
2018-01-15T19:52:30.298Z,8.37
2018-01-15T19:55:04.346Z,7.60
2018-01-15T19:57:38.332Z,7.33
2018-01-15T20:00:12.422Z,7.90
2018-01-15T20:02:46.464Z,7.77
2018-01-15T20:05:21.199Z,7.40
2018-01-15T20:07:55.327Z,6.17
2018-01-15T20:10:29.381Z,7.60
2018-01-15T20:12:57.709Z,7.63
2018-01-15T20:15:26.025Z,6.70
2018-01-15T20:17:54.472Z,7.73
2018-01-15T20:20:22.965Z,6.93
2018-01-15T20:22:51.542Z,8.00
2018-01-15T20:25:19.993Z,9.67
2018-01-15T20:27:49.252Z,9.10
2018-01-15T20:30:17.756Z,7.63
2018-01-15T20:32:46.499Z,7.80
2018-01-15T20:35:14.997Z,6.80
2018-01-15T20:37:49.149Z,6.07
2018-01-15T20:40:18.396Z,6.53
2018-01-15T20:42:46.879Z,7.53
2018-01-15T20:45:15.410Z,10.00
2018-01-15T20:47:43.969Z,6.57
2018-01-15T20:50:12.501Z,5.20
2018-01-15T20:52:40.954Z,6.03
2018-01-15T20:55:10.420Z,6.30
2018-01-15T20:57:40.829Z,5.33
2018-01-15T21:00:09.296Z,6.50
2018-01-15T21:02:37.786Z,5.40
2018-01-15T21:05:06.285Z,6.13
2018-01-15T21:07:34.765Z,5.63
2018-01-15T21:10:03.316Z,5.07
2018-01-15T21:12:31.890Z,5.10
2018-01-15T21:15:00.425Z,5.70
2018-01-15T21:17:29.014Z,4.70
2018-01-15T21:19:57.583Z,4.80
2018-01-15T21:22:26.083Z,4.73
2018-01-15T21:24:54.670Z,4.80
2018-01-15T21:27:23.376Z,4.83
2018-01-15T21:29:51.894Z,3.57
2018-01-15T21:32:20.434Z,5.33
2018-01-15T21:34:49.776Z,3.10
2018-01-15T21:37:18.275Z,3.57
2018-01-15T21:39:46.674Z,3.50
2018-01-15T21:42:15.331Z,3.17
2018-01-15T21:44:44.029Z,3.73
2018-01-15T21:47:12.598Z,3.30
2018-01-15T21:49:41.196Z,3.30
2018-01-15T21:52:09.782Z,3.27
2018-01-15T21:54:38.368Z,3.17
2018-01-15T21:57:06.931Z,3.60
2018-01-15T21:59:35.498Z,4.33
2018-01-15T22:02:04.082Z,3.50
2018-01-15T22:04:33.415Z,2.60
2018-01-15T22:07:01.949Z,2.83
2018-01-15T22:09:30.614Z,2.77
2018-01-15T22:11:59.145Z,3.27
2018-01-15T22:14:27.637Z,3.20
2018-01-15T22:16:56.170Z,3.80
2018-01-15T22:19:24.794Z,3.10
2018-01-15T22:21:53.377Z,2.60
2018-01-15T22:24:21.946Z,3.20
2018-01-15T22:26:50.533Z,3.73
2018-01-15T22:29:19.055Z,2.63
2018-01-15T22:31:47.623Z,3.00
2018-01-15T22:34:16.179Z,3.17
2018-01-15T22:36:44.753Z,2.93
2018-01-15T22:39:13.316Z,3.23
2018-01-15T22:41:42.656Z,2.90
2018-01-15T22:44:11.214Z,3.77
2018-01-15T22:46:40.470Z,2.60
2018-01-15T22:49:08.732Z,2.70
2018-01-15T22:51:37.260Z,2.80
2018-01-15T22:54:06.579Z,3.40
2018-01-15T22:56:35.172Z,2.57
2018-01-15T22:59:03.720Z,2.53
2018-01-15T23:01:33.064Z,2.80
2018-01-15T23:04:02.408Z,2.13
2018-01-15T23:06:30.948Z,2.40
2018-01-15T23:08:59.503Z,2.00
2018-01-15T23:11:28.079Z,3.73
2018-01-15T23:13:56.614Z,2.73
2018-01-15T23:16:25.175Z,2.17
2018-01-15T23:18:53.742Z,2.20
2018-01-15T23:21:22.272Z,2.13
2018-01-15T23:23:50.871Z,1.90
2018-01-15T23:26:19.460Z,2.27
2018-01-15T23:28:48.083Z,1.73
2018-01-15T23:31:16.638Z,1.73
2018-01-15T23:33:46.030Z,2.00
2018-01-15T23:36:14.568Z,1.80
2018-01-15T23:38:43.121Z,2.60
2018-01-15T23:41:11.742Z,2.33
2018-01-15T23:43:40.225Z,7.57
2018-01-15T23:46:08.754Z,2.43
2018-01-15T23:48:38.114Z,2.40
2018-01-15T23:51:06.685Z,2.00
2018-01-15T23:53:35.239Z,1.83
2018-01-15T23:56:03.852Z,2.40
2018-01-15T23:58:33.206Z,1.90
